createdAt,value
2023-04-06T00:00:54.958Z,966.00
2023-04-06T00:01:55.036Z,972.00
2023-04-06T00:02:55.190Z,978.00
2023-04-06T00:03:55.157Z,968.00
2023-04-06T00:04:55.161Z,972.00
2023-04-06T00:05:55.323Z,965.00
2023-04-06T00:06:55.251Z,972.00
2023-04-06T00:07:55.295Z,974.00
2023-04-06T00:08:55.370Z,963.00
2023-04-06T00:09:55.397Z,971.00
2023-04-06T00:10:55.485Z,967.00
2023-04-06T00:11:55.529Z,975.00
2023-04-06T00:12:55.529Z,961.00
2023-04-06T00:13:55.603Z,974.00
2023-04-06T00:14:55.643Z,975.00
2023-04-06T00:15:55.740Z,980.00
2023-04-06T00:16:55.836Z,975.00
2023-04-06T00:17:55.878Z,971.00
2023-04-06T00:18:55.852Z,956.00
2023-04-06T00:19:55.888Z,965.00
2023-04-06T00:20:55.931Z,976.00
2023-04-06T00:21:56.119Z,972.00
2023-04-06T00:22:56.063Z,978.00
2023-04-06T00:23:56.123Z,986.00
2023-04-06T00:24:56.184Z,963.00
2023-04-06T00:25:56.198Z,970.00
2023-04-06T00:26:56.243Z,966.00
2023-04-06T00:27:56.312Z,968.00
2023-04-06T00:28:56.320Z,973.00
2023-04-06T00:29:56.438Z,982.00
2023-04-06T00:30:56.501Z,982.00
2023-04-06T00:31:56.478Z,967.00
2023-04-06T00:32:56.628Z,978.00
2023-04-06T00:33:56.585Z,955.00
2023-04-06T00:34:56.664Z,966.00
2023-04-06T00:35:56.741Z,948.00
2023-04-06T00:36:56.786Z,959.00
2023-04-06T00:37:56.835Z,975.00
2023-04-06T00:38:56.899Z,987.00
2023-04-06T00:39:56.900Z,982.00
2023-04-06T00:40:56.949Z,968.00
2023-04-06T00:41:57.019Z,972.00
2023-04-06T00:42:57.069Z,973.00
2023-04-06T00:43:57.144Z,988.00
2023-04-06T00:44:57.245Z,983.00
2023-04-06T00:45:57.264Z,971.00
2023-04-06T00:46:57.298Z,981.00
2023-04-06T00:47:57.459Z,978.00
2023-04-06T00:48:57.403Z,965.00
2023-04-06T00:49:57.515Z,952.00
2023-04-06T00:50:57.578Z,982.00
2023-04-06T00:51:57.615Z,985.00
2023-04-06T00:52:57.662Z,982.00
2023-04-06T00:53:57.698Z,979.00
2023-04-06T00:54:57.724Z,983.00
2023-04-06T00:55:57.847Z,978.00
2023-04-06T00:56:57.894Z,969.00
2023-04-06T00:57:57.893Z,962.00
2023-04-06T00:58:57.985Z,964.00
2023-04-06T00:59:58.068Z,978.00
2023-04-06T01:00:58.083Z,962.00
2023-04-06T01:01:58.273Z,974.00
2023-04-06T01:02:58.217Z,963.00
2023-04-06T01:03:58.306Z,985.00
2023-04-06T01:04:58.442Z,980.00
2023-04-06T01:05:58.435Z,969.00
2023-04-06T01:06:58.451Z,950.00
2023-04-06T01:07:58.532Z,957.00
2023-04-06T01:08:58.578Z,978.00
2023-04-06T01:09:58.657Z,983.00
2023-04-06T01:10:58.701Z,970.00
2023-04-06T01:11:58.770Z,979.00
2023-04-06T01:12:58.802Z,990.00
2023-04-06T01:13:58.863Z,974.00
2023-04-06T01:14:58.937Z,956.00
2023-04-06T01:15:59.029Z,965.00
2023-04-06T01:16:59.026Z,973.00
2023-04-06T01:17:59.164Z,963.00
2023-04-06T01:18:59.182Z,972.00
2023-04-06T01:19:59.207Z,967.00
2023-04-06T01:20:59.269Z,974.00
2023-04-06T01:21:59.348Z,965.00
2023-04-06T01:22:59.393Z,980.00
2023-04-06T01:23:59.462Z,978.00
2023-04-06T01:24:59.525Z,972.00
2023-04-06T01:25:59.579Z,981.00
2023-04-06T01:26:59.637Z,973.00
2023-04-06T01:27:59.671Z,971.00
2023-04-06T01:28:59.817Z,963.00
2023-04-06T01:29:59.821Z,965.00
2023-04-06T01:30:59.919Z,962.00
2023-04-06T01:31:59.939Z,955.00
2023-04-06T01:33:00.130Z,955.00
2023-04-06T01:34:00.018Z,962.00
2023-04-06T01:35:00.105Z,966.00
2023-04-06T01:36:00.225Z,961.00
2023-04-06T01:37:00.212Z,961.00
2023-04-06T01:38:00.275Z,972.00
2023-04-06T01:39:00.390Z,974.00
2023-04-06T01:40:00.383Z,968.00
2023-04-06T01:41:00.504Z,964.00
2023-04-06T01:42:00.569Z,955.00
2023-04-06T01:43:00.603Z,975.00
2023-04-06T01:44:00.675Z,961.00
2023-04-06T01:45:00.737Z,973.00
2023-04-06T01:46:00.767Z,980.00
2023-04-06T01:47:00.926Z,962.00
2023-04-06T01:48:00.930Z,977.00
2023-04-06T01:49:00.950Z,983.00
2023-04-06T01:50:00.985Z,971.00
2023-04-06T01:51:01.064Z,955.00
2023-04-06T01:52:01.137Z,977.00
2023-04-06T01:53:01.095Z,971.00
2023-04-06T01:54:01.151Z,958.00
2023-04-06T01:55:01.266Z,965.00
2023-04-06T01:56:01.214Z,970.00
2023-04-06T01:57:01.255Z,966.00
2023-04-06T01:58:01.255Z,972.00
2023-04-06T01:59:01.294Z,974.00
2023-04-06T02:00:01.361Z,979.00
2023-04-06T02:01:01.497Z,967.00
2023-04-06T02:02:01.507Z,973.00
2023-04-06T02:03:01.653Z,967.00
2023-04-06T02:04:01.591Z,963.00
2023-04-06T02:05:01.587Z,974.00
2023-04-06T02:06:01.599Z,964.00
2023-04-06T02:07:01.759Z,956.00
2023-04-06T02:08:01.733Z,972.00
2023-04-06T02:09:01.733Z,973.00
2023-04-06T02:10:01.729Z,974.00
2023-04-06T02:11:01.789Z,978.00
2023-04-06T02:12:01.857Z,988.00
2023-04-06T02:13:01.863Z,982.00
2023-04-06T02:14:01.843Z,976.00
2023-04-06T02:15:01.868Z,972.00
2023-04-06T02:16:01.987Z,965.00
2023-04-06T02:17:01.940Z,962.00
2023-04-06T02:18:02.064Z,954.00
2023-04-06T02:19:02.036Z,961.00
2023-04-06T02:20:02.102Z,958.00
2023-04-06T02:21:02.107Z,980.00
2023-04-06T02:22:02.139Z,973.00
2023-04-06T02:23:02.140Z,970.00
2023-04-06T02:24:02.212Z,955.00
2023-04-06T02:25:02.239Z,975.00
2023-04-06T02:26:02.262Z,975.00
2023-04-06T02:27:02.294Z,952.00
2023-04-06T02:28:02.351Z,962.00
2023-04-06T02:29:02.379Z,977.00
2023-04-06T02:30:02.374Z,966.00
2023-04-06T02:31:02.375Z,959.00
2023-04-06T02:32:02.444Z,965.00
2023-04-06T02:33:02.456Z,942.00
2023-04-06T02:34:02.447Z,957.00
2023-04-06T02:35:02.444Z,940.00
2023-04-06T02:36:02.479Z,957.00
2023-04-06T02:37:02.470Z,942.00
2023-04-06T02:38:02.473Z,952.00
2023-04-06T02:39:02.515Z,954.00
2023-04-06T02:40:02.548Z,959.00
2023-04-06T02:41:02.505Z,962.00
2023-04-06T02:42:02.491Z,962.00
2023-04-06T02:43:02.490Z,967.00
2023-04-06T02:44:02.511Z,965.00
2023-04-06T02:45:02.473Z,968.00
2023-04-06T02:46:02.614Z,959.00
2023-04-06T02:47:02.492Z,969.00
2023-04-06T02:48:02.512Z,967.00
2023-04-06T02:49:02.517Z,948.00
2023-04-06T02:50:02.518Z,954.00
2023-04-06T02:51:02.462Z,937.00
2023-04-06T02:52:02.470Z,964.00
2023-04-06T02:53:02.520Z,962.00
2023-04-06T02:54:02.548Z,967.00
2023-04-06T02:55:02.588Z,954.00
2023-04-06T02:56:02.497Z,951.00
2023-04-06T02:57:02.558Z,959.00
2023-04-06T02:58:02.568Z,968.00
2023-04-06T02:59:02.641Z,964.00
2023-04-06T03:00:02.486Z,955.00
2023-04-06T03:01:02.640Z,960.00
2023-04-06T03:02:02.601Z,949.00
2023-04-06T03:03:02.667Z,960.00
2023-04-06T03:04:02.524Z,962.00
2023-04-06T03:05:02.562Z,951.00
2023-04-06T03:06:02.514Z,979.00
2023-04-06T03:07:02.532Z,957.00
2023-04-06T03:08:02.544Z,967.00
2023-04-06T03:09:02.537Z,968.00
2023-04-06T03:10:02.480Z,975.00
2023-04-06T03:11:02.555Z,952.00
2023-04-06T03:12:02.483Z,941.00
2023-04-06T03:13:02.493Z,951.00
2023-04-06T03:14:02.516Z,957.00
2023-04-06T03:15:02.505Z,943.00
2023-04-06T03:16:02.654Z,940.00
2023-04-06T03:17:02.525Z,960.00
2023-04-06T03:18:02.576Z,950.00
2023-04-06T03:19:02.538Z,956.00
2023-04-06T03:20:02.561Z,960.00
2023-04-06T03:21:02.524Z,959.00
2023-04-06T03:22:02.513Z,954.00
2023-04-06T03:23:02.547Z,961.00
2023-04-06T03:24:02.568Z,952.00
2023-04-06T03:25:03.842Z,951.00
2023-04-06T03:26:02.559Z,953.00
2023-04-06T03:27:02.572Z,948.00
2023-04-06T03:28:02.541Z,966.00
2023-04-06T03:29:02.536Z,948.00
2023-04-06T03:30:02.591Z,947.00
2023-04-06T03:31:02.631Z,945.00
2023-04-06T03:32:02.563Z,956.00
2023-04-06T03:33:02.634Z,952.00
2023-04-06T03:34:02.570Z,956.00
2023-04-06T03:35:02.592Z,948.00
2023-04-06T03:36:02.706Z,947.00
2023-04-06T03:37:09.972Z,959.00
2023-04-06T03:38:03.546Z,959.00
2023-04-06T03:39:02.566Z,961.00
2023-04-06T03:40:02.558Z,953.00
2023-04-06T03:41:02.553Z,951.00
2023-04-06T03:42:02.537Z,975.00
2023-04-06T03:43:02.552Z,958.00
2023-04-06T03:44:02.505Z,967.00
2023-04-06T03:45:02.539Z,963.00
2023-04-06T03:46:02.581Z,963.00
2023-04-06T03:47:02.490Z,965.00
2023-04-06T03:48:02.534Z,944.00
2023-04-06T03:49:02.503Z,959.00
2023-04-06T03:50:02.483Z,955.00
2023-04-06T03:51:02.469Z,967.00
2023-04-06T03:52:02.516Z,975.00
2023-04-06T03:53:02.495Z,944.00
2023-04-06T03:54:02.444Z,960.00
2023-04-06T03:55:02.447Z,975.00
2023-04-06T03:56:04.611Z,968.00
2023-04-06T03:57:02.481Z,963.00
2023-04-06T03:58:02.465Z,954.00
2023-04-06T03:59:02.512Z,961.00
2023-04-06T04:00:02.475Z,943.00
2023-04-06T04:01:02.445Z,950.00
2023-04-06T04:02:02.527Z,954.00
2023-04-06T04:03:02.613Z,947.00
2023-04-06T04:04:02.536Z,913.00
2023-04-06T04:05:02.512Z,883.00
2023-04-06T04:06:02.575Z,877.00
2023-04-06T04:07:02.547Z,873.00
2023-04-06T04:08:02.554Z,835.00
2023-04-06T04:09:02.544Z,818.00
2023-04-06T04:10:02.617Z,789.00
2023-04-06T04:11:02.631Z,760.00
2023-04-06T04:12:02.636Z,749.00
2023-04-06T04:13:03.284Z,718.00
2023-04-06T04:14:02.645Z,686.00
2023-04-06T04:15:02.694Z,665.00
2023-04-06T04:16:02.728Z,656.00
2023-04-06T04:17:02.713Z,640.00
2023-04-06T04:18:02.825Z,644.00
2023-04-06T04:19:02.847Z,628.00
2023-04-06T04:20:02.817Z,620.00
2023-04-06T04:21:02.909Z,611.00
2023-04-06T04:22:02.906Z,603.00
2023-04-06T04:23:02.930Z,601.00
2023-04-06T04:24:02.917Z,593.00
2023-04-06T04:25:03.052Z,589.00
2023-04-06T04:26:03.033Z,583.00
2023-04-06T04:27:03.043Z,580.00
2023-04-06T04:28:03.051Z,565.00
2023-04-06T04:29:03.098Z,567.00
2023-04-06T04:30:03.090Z,560.00
2023-04-06T04:31:03.203Z,561.00
2023-04-06T04:32:03.294Z,551.00
2023-04-06T04:33:03.246Z,562.00
2023-04-06T04:34:03.243Z,560.00
2023-04-06T04:35:03.269Z,565.00
2023-04-06T04:36:03.334Z,563.00
2023-04-06T04:37:03.322Z,563.00
2023-04-06T04:38:03.340Z,570.00
2023-04-06T04:39:03.337Z,573.00
2023-04-06T04:40:03.342Z,579.00
2023-04-06T04:41:03.345Z,581.00
2023-04-06T04:42:03.407Z,582.00
2023-04-06T04:43:03.393Z,575.00
2023-04-06T04:44:03.416Z,582.00
2023-04-06T04:45:03.420Z,584.00
2023-04-06T04:46:03.486Z,585.00
2023-04-06T04:47:03.501Z,592.00
2023-04-06T04:48:03.515Z,603.00
2023-04-06T04:49:03.431Z,607.00
2023-04-06T04:50:03.519Z,606.00
2023-04-06T04:51:03.530Z,610.00
2023-04-06T04:52:03.528Z,609.00
2023-04-06T04:53:03.543Z,612.00
2023-04-06T04:54:03.566Z,619.00
2023-04-06T04:55:03.564Z,617.00
2023-04-06T04:56:03.609Z,620.00
2023-04-06T04:57:03.603Z,620.00
2023-04-06T04:58:03.648Z,623.00
2023-04-06T04:59:03.735Z,620.00
2023-04-06T05:00:03.628Z,623.00
2023-04-06T05:01:03.773Z,621.00
2023-04-06T05:02:03.764Z,624.00
2023-04-06T05:03:03.758Z,624.00
2023-04-06T05:04:03.717Z,628.00
2023-04-06T05:05:03.788Z,635.00
2023-04-06T05:06:03.752Z,633.00
2023-04-06T05:07:03.796Z,637.00
2023-04-06T05:08:03.777Z,635.00
2023-04-06T05:09:03.789Z,634.00
2023-04-06T05:10:03.804Z,640.00
2023-04-06T05:11:03.800Z,636.00
2023-04-06T05:12:03.821Z,642.00
2023-04-06T05:13:03.829Z,639.00
2023-04-06T05:14:03.867Z,635.00
2023-04-06T05:15:03.836Z,644.00
2023-04-06T05:16:03.958Z,639.00
2023-04-06T05:17:04.027Z,647.00
2023-04-06T05:18:04.072Z,639.00
2023-04-06T05:19:03.920Z,647.00
2023-04-06T05:20:03.920Z,653.00
2023-04-06T05:21:03.924Z,648.00
2023-04-06T05:22:03.973Z,653.00
2023-04-06T05:23:03.956Z,652.00
2023-04-06T05:24:03.972Z,653.00
2023-04-06T05:25:03.995Z,645.00
2023-04-06T05:26:04.018Z,648.00
2023-04-06T05:27:03.985Z,653.00
2023-04-06T05:28:03.991Z,656.00
2023-04-06T05:29:04.013Z,652.00
2023-04-06T05:30:04.021Z,657.00
2023-04-06T05:31:04.135Z,655.00
2023-04-06T05:32:04.017Z,653.00
2023-04-06T05:33:04.097Z,658.00
2023-04-06T05:34:04.013Z,653.00
2023-04-06T05:35:04.080Z,664.00
2023-04-06T05:36:04.085Z,659.00
2023-04-06T05:37:04.098Z,659.00
2023-04-06T05:38:04.084Z,658.00
2023-04-06T05:39:04.125Z,657.00
2023-04-06T05:40:04.162Z,672.00
2023-04-06T05:41:04.177Z,660.00
2023-04-06T05:42:04.136Z,662.00
2023-04-06T05:43:04.202Z,655.00
2023-04-06T05:44:04.197Z,663.00
2023-04-06T05:45:04.222Z,658.00
2023-04-06T05:46:04.184Z,661.00
2023-04-06T05:47:04.179Z,660.00
2023-04-06T05:48:04.318Z,658.00
2023-04-06T05:49:06.677Z,662.00
2023-04-06T05:50:04.168Z,667.00
2023-04-06T05:51:04.185Z,672.00
2023-04-06T05:52:04.168Z,658.00
2023-04-06T05:53:04.172Z,659.00
2023-04-06T05:54:04.205Z,664.00
2023-04-06T05:55:04.158Z,660.00
2023-04-06T05:56:04.193Z,673.00
2023-04-06T05:57:04.289Z,666.00
2023-04-06T05:58:04.113Z,655.00
2023-04-06T05:59:04.139Z,668.00
2023-04-06T06:00:04.095Z,673.00
2023-04-06T06:01:04.097Z,660.00
2023-04-06T06:02:04.108Z,667.00
2023-04-06T06:03:04.156Z,664.00
2023-04-06T06:04:04.099Z,663.00
2023-04-06T06:05:04.179Z,664.00
2023-04-06T06:06:05.362Z,667.00
2023-04-06T06:07:04.046Z,667.00
2023-04-06T06:08:04.019Z,664.00
2023-04-06T06:09:04.069Z,686.00
2023-04-06T06:10:04.077Z,671.00
2023-04-06T06:11:03.997Z,674.00
2023-04-06T06:12:03.987Z,683.00
2023-04-06T06:13:04.020Z,663.00
2023-04-06T06:14:04.016Z,663.00
2023-04-06T06:15:04.011Z,663.00
2023-04-06T06:16:04.040Z,661.00
2023-04-06T06:17:03.941Z,677.00
2023-04-06T06:18:04.066Z,675.00
2023-04-06T06:19:04.060Z,663.00
2023-04-06T06:20:03.961Z,673.00
2023-04-06T06:21:03.945Z,682.00
2023-04-06T06:22:03.962Z,670.00
2023-04-06T06:23:03.924Z,671.00
2023-04-06T06:24:03.942Z,687.00
2023-04-06T06:25:03.947Z,669.00
2023-04-06T06:26:03.926Z,685.00
2023-04-06T06:27:03.904Z,671.00
2023-04-06T06:28:03.890Z,675.00
2023-04-06T06:29:03.882Z,675.00
2023-04-06T06:30:03.893Z,676.00
2023-04-06T06:31:03.860Z,681.00
2023-04-06T06:32:03.944Z,696.00
2023-04-06T06:33:03.900Z,683.00
2023-04-06T06:34:03.931Z,676.00
2023-04-06T06:35:03.895Z,684.00
2023-04-06T06:36:03.942Z,683.00
2023-04-06T06:37:03.921Z,666.00
2023-04-06T06:38:03.998Z,680.00
2023-04-06T06:39:04.054Z,677.00
2023-04-06T06:40:04.114Z,663.00
2023-04-06T06:41:04.133Z,671.00
2023-04-06T06:42:04.221Z,666.00
2023-04-06T06:43:04.227Z,661.00
2023-04-06T06:44:11.741Z,665.00
2023-04-06T06:45:04.220Z,665.00
2023-04-06T06:46:04.271Z,667.00
2023-04-06T06:47:04.271Z,670.00
2023-04-06T06:48:04.269Z,669.00
2023-04-06T06:49:04.257Z,674.00
2023-04-06T06:50:04.241Z,682.00
2023-04-06T06:51:04.240Z,683.00
2023-04-06T06:52:04.248Z,668.00
2023-04-06T06:53:04.183Z,673.00
2023-04-06T06:54:04.197Z,667.00
2023-04-06T06:55:04.187Z,663.00
2023-04-06T06:56:04.190Z,675.00
2023-04-06T06:57:04.177Z,671.00
2023-04-06T06:58:04.150Z,670.00
2023-04-06T06:59:04.208Z,682.00
2023-04-06T07:00:04.165Z,672.00
2023-04-06T07:01:04.234Z,674.00
2023-04-06T07:02:04.278Z,670.00
2023-04-06T07:03:04.150Z,667.00
2023-04-06T07:04:04.195Z,677.00
2023-04-06T07:05:10.170Z,667.00
2023-04-06T07:06:05.161Z,668.00
2023-04-06T07:07:04.083Z,669.00
2023-04-06T07:08:04.113Z,671.00
2023-04-06T07:09:04.089Z,674.00
2023-04-06T07:10:04.105Z,676.00
2023-04-06T07:11:04.092Z,681.00
2023-04-06T07:12:04.054Z,679.00
2023-04-06T07:13:04.093Z,685.00
2023-04-06T07:14:04.063Z,687.00
2023-04-06T07:15:04.075Z,676.00
2023-04-06T07:16:04.097Z,698.00
2023-04-06T07:17:04.219Z,687.00
2023-04-06T07:18:04.272Z,685.00
2023-04-06T07:19:04.239Z,685.00
2023-04-06T07:20:04.301Z,683.00
2023-04-06T07:21:04.356Z,677.00
2023-04-06T07:22:04.416Z,662.00
2023-04-06T07:23:04.528Z,672.00
2023-04-06T07:24:04.483Z,661.00
2023-04-06T07:25:04.553Z,661.00
2023-04-06T07:26:04.595Z,667.00
2023-04-06T07:27:04.600Z,663.00
2023-04-06T07:28:04.662Z,665.00
2023-04-06T07:29:04.723Z,669.00
2023-04-06T07:30:04.773Z,663.00
2023-04-06T07:31:04.744Z,664.00
2023-04-06T07:32:04.890Z,660.00
2023-04-06T07:33:04.916Z,663.00
2023-04-06T07:34:04.867Z,664.00
2023-04-06T07:35:04.964Z,665.00
2023-04-06T07:36:04.953Z,665.00
2023-04-06T07:37:04.966Z,674.00
2023-04-06T07:38:04.988Z,671.00
2023-04-06T07:39:04.977Z,662.00
2023-04-06T07:40:05.023Z,668.00
2023-04-06T07:41:05.047Z,665.00
2023-04-06T07:42:05.018Z,664.00
2023-04-06T07:43:05.110Z,666.00
2023-04-06T07:44:05.074Z,675.00
2023-04-06T07:45:05.060Z,666.00
2023-04-06T07:46:05.160Z,672.00
2023-04-06T07:47:05.060Z,661.00
2023-04-06T07:48:05.127Z,673.00
2023-04-06T07:49:05.110Z,673.00
2023-04-06T07:50:05.083Z,674.00
2023-04-06T07:51:05.124Z,671.00
2023-04-06T07:52:05.047Z,680.00
2023-04-06T07:53:05.101Z,675.00
2023-04-06T07:54:05.318Z,673.00
2023-04-06T07:55:05.161Z,672.00
2023-04-06T07:56:05.201Z,665.00
2023-04-06T07:57:05.234Z,674.00
2023-04-06T07:58:05.342Z,678.00
2023-04-06T07:59:05.341Z,685.00
2023-04-06T08:00:05.463Z,682.00
2023-04-06T08:01:05.423Z,662.00
2023-04-06T08:02:05.564Z,665.00
2023-04-06T08:03:05.663Z,680.00
2023-04-06T08:04:05.754Z,686.00
2023-04-06T08:05:05.696Z,671.00
2023-04-06T08:06:05.745Z,679.00
2023-04-06T08:07:05.798Z,684.00
2023-04-06T08:08:05.888Z,690.00
2023-04-06T08:09:05.941Z,684.00
2023-04-06T08:10:06.018Z,671.00
2023-04-06T08:11:06.027Z,671.00
2023-04-06T08:12:06.124Z,664.00
2023-04-06T08:13:06.161Z,671.00
2023-04-06T08:14:06.299Z,666.00
2023-04-06T08:15:06.272Z,680.00
2023-04-06T08:16:06.341Z,658.00
2023-04-06T08:17:06.687Z,663.00
2023-04-06T08:18:06.564Z,665.00
2023-04-06T08:19:06.500Z,676.00
2023-04-06T08:20:06.550Z,662.00
2023-04-06T08:21:06.605Z,665.00
2023-04-06T08:22:06.525Z,664.00
2023-04-06T08:23:06.560Z,663.00
2023-04-06T08:24:07.009Z,658.00
2023-04-06T08:25:06.677Z,660.00
2023-04-06T08:26:06.669Z,655.00
2023-04-06T08:27:06.787Z,659.00
2023-04-06T08:28:06.705Z,654.00
2023-04-06T08:29:06.744Z,661.00
2023-04-06T08:30:06.864Z,650.00
2023-04-06T08:31:06.860Z,660.00
2023-04-06T08:32:06.885Z,654.00
2023-04-06T08:33:06.887Z,654.00
2023-04-06T08:34:07.379Z,652.00
2023-04-06T08:35:06.885Z,652.00
2023-04-06T08:36:07.003Z,650.00
2023-04-06T08:37:06.943Z,656.00
2023-04-06T08:38:06.937Z,652.00
2023-04-06T08:39:06.995Z,649.00
2023-04-06T08:40:06.991Z,649.00
2023-04-06T08:41:08.161Z,647.00
2023-04-06T08:42:07.017Z,647.00
2023-04-06T08:43:07.057Z,646.00
2023-04-06T08:44:07.257Z,653.00
2023-04-06T08:45:07.053Z,646.00
2023-04-06T08:46:07.085Z,650.00
2023-04-06T08:47:07.121Z,648.00
2023-04-06T08:48:07.174Z,651.00
2023-04-06T08:49:07.123Z,646.00
2023-04-06T08:50:07.121Z,645.00
2023-04-06T08:51:07.135Z,645.00
2023-04-06T08:52:07.164Z,646.00
2023-04-06T08:53:07.151Z,643.00
2023-04-06T08:54:07.503Z,646.00
2023-04-06T08:55:07.214Z,640.00
2023-04-06T08:56:07.202Z,643.00
2023-04-06T08:57:07.177Z,644.00
2023-04-06T08:58:07.212Z,642.00
2023-04-06T08:59:07.267Z,643.00
2023-04-06T09:00:07.197Z,638.00
2023-04-06T09:01:07.212Z,638.00
2023-04-06T09:02:07.382Z,637.00
2023-04-06T09:03:07.492Z,641.00
2023-04-06T09:04:09.306Z,643.00
2023-04-06T09:05:07.839Z,631.00
2023-04-06T09:06:07.260Z,638.00
2023-04-06T09:07:07.326Z,638.00
2023-04-06T09:08:07.322Z,635.00
2023-04-06T09:09:07.289Z,636.00
2023-04-06T09:10:07.302Z,640.00
2023-04-06T09:11:07.315Z,639.00
2023-04-06T09:12:07.280Z,629.00
2023-04-06T09:13:07.373Z,633.00
2023-04-06T09:14:07.426Z,634.00
2023-04-06T09:15:07.293Z,634.00
2023-04-06T09:16:07.383Z,636.00
2023-04-06T09:17:07.335Z,633.00
2023-04-06T09:18:07.325Z,629.00
2023-04-06T09:19:07.318Z,626.00
2023-04-06T09:20:07.308Z,633.00
2023-04-06T09:21:07.278Z,634.00
2023-04-06T09:22:07.319Z,624.00
2023-04-06T09:23:07.288Z,632.00
2023-04-06T09:24:07.787Z,628.00
2023-04-06T09:25:07.291Z,628.00
2023-04-06T09:26:08.219Z,625.00
2023-04-06T09:27:07.323Z,627.00
2023-04-06T09:28:07.286Z,626.00
2023-04-06T09:29:07.324Z,628.00
2023-04-06T09:30:07.318Z,623.00
2023-04-06T09:31:07.295Z,628.00
2023-04-06T09:32:07.286Z,629.00
2023-04-06T09:33:07.337Z,619.00
2023-04-06T09:34:07.606Z,619.00
2023-04-06T09:35:07.321Z,626.00
2023-04-06T09:36:07.350Z,627.00
2023-04-06T09:37:07.445Z,619.00
2023-04-06T09:38:07.491Z,623.00
2023-04-06T09:39:07.559Z,618.00
2023-04-06T09:40:07.569Z,622.00
2023-04-06T09:41:07.576Z,623.00
2023-04-06T09:42:07.702Z,619.00
2023-04-06T09:43:07.729Z,618.00
2023-04-06T09:44:08.111Z,614.00
2023-04-06T09:45:07.909Z,621.00
2023-04-06T09:46:07.921Z,611.00
2023-04-06T09:47:08.045Z,615.00
2023-04-06T09:48:08.136Z,617.00
2023-04-06T09:49:08.252Z,611.00
2023-04-06T09:50:08.158Z,614.00
2023-04-06T09:51:08.265Z,610.00
2023-04-06T09:52:08.367Z,608.00
2023-04-06T09:53:08.369Z,612.00
2023-04-06T09:54:08.587Z,605.00
2023-04-06T09:55:08.462Z,606.00
2023-04-06T09:56:08.528Z,602.00
2023-04-06T09:57:08.639Z,609.00
2023-04-06T09:58:08.656Z,607.00
2023-04-06T09:59:09.021Z,601.00
2023-04-06T10:00:08.825Z,601.00
2023-04-06T10:01:08.916Z,601.00
2023-04-06T10:02:08.954Z,608.00
2023-04-06T10:03:09.796Z,608.00
2023-04-06T10:04:09.594Z,599.00
2023-04-06T10:05:09.050Z,600.00
2023-04-06T10:06:09.122Z,607.00
2023-04-06T10:07:09.182Z,597.00
2023-04-06T10:08:09.210Z,601.00
2023-04-06T10:09:09.290Z,601.00
2023-04-06T10:10:09.342Z,595.00
2023-04-06T10:11:09.404Z,601.00
2023-04-06T10:12:09.393Z,599.00
2023-04-06T10:13:09.460Z,602.00
2023-04-06T10:14:09.723Z,599.00
2023-04-06T10:15:09.573Z,598.00
2023-04-06T10:16:09.652Z,594.00
2023-04-06T10:17:09.635Z,596.00
2023-04-06T10:18:09.866Z,597.00
2023-04-06T10:19:09.745Z,599.00
2023-04-06T10:20:09.816Z,590.00
2023-04-06T10:21:09.869Z,597.00
2023-04-06T10:22:09.972Z,591.00
2023-04-06T10:23:09.999Z,590.00
2023-04-06T10:24:10.275Z,594.00
2023-04-06T10:25:10.034Z,599.00
2023-04-06T10:26:10.066Z,593.00
2023-04-06T10:27:10.129Z,591.00
2023-04-06T10:28:10.142Z,589.00
2023-04-06T10:29:10.203Z,587.00
2023-04-06T10:30:10.259Z,586.00
2023-04-06T10:31:10.274Z,586.00
2023-04-06T10:32:10.345Z,581.00
2023-04-06T10:33:10.349Z,582.00
2023-04-06T10:34:10.591Z,581.00
2023-04-06T10:35:10.459Z,578.00
2023-04-06T10:36:10.521Z,584.00
2023-04-06T10:37:10.616Z,582.00
2023-04-06T10:38:10.571Z,589.00
2023-04-06T10:39:10.625Z,581.00
2023-04-06T10:40:10.639Z,574.00
2023-04-06T10:41:10.716Z,575.00
2023-04-06T10:42:10.917Z,573.00
2023-04-06T10:43:10.863Z,573.00
2023-04-06T10:44:10.883Z,571.00
2023-04-06T10:45:10.885Z,573.00
2023-04-06T10:46:11.120Z,571.00
2023-04-06T10:47:11.001Z,569.00
2023-04-06T10:48:11.104Z,575.00
2023-04-06T10:49:11.119Z,577.00
2023-04-06T10:50:11.210Z,568.00
2023-04-06T10:51:11.233Z,573.00
2023-04-06T10:52:11.263Z,564.00
2023-04-06T10:53:11.268Z,564.00
2023-04-06T10:54:11.282Z,565.00
2023-04-06T10:55:11.358Z,564.00
2023-04-06T10:56:11.452Z,557.00
2023-04-06T10:57:11.464Z,559.00
2023-04-06T10:58:11.532Z,560.00
2023-04-06T10:59:11.658Z,562.00
2023-04-06T11:00:12.713Z,553.00
2023-04-06T11:01:11.767Z,551.00
2023-04-06T11:02:11.745Z,555.00
2023-04-06T11:03:11.934Z,554.00
2023-04-06T11:04:11.884Z,552.00
2023-04-06T11:05:11.908Z,541.00
2023-04-06T11:06:11.970Z,551.00
2023-04-06T11:07:11.995Z,545.00
2023-04-06T11:08:12.036Z,542.00
2023-04-06T11:09:12.056Z,550.00
2023-04-06T11:10:17.557Z,543.00
2023-04-06T11:11:13.087Z,543.00
2023-04-06T11:12:12.075Z,536.00
2023-04-06T11:13:12.081Z,540.00
2023-04-06T11:14:12.082Z,535.00
2023-04-06T11:15:12.041Z,528.00
2023-04-06T11:16:12.065Z,532.00
2023-04-06T11:17:12.131Z,522.00
2023-04-06T11:18:12.096Z,533.00
2023-04-06T11:19:12.009Z,529.00
2023-04-06T11:20:12.057Z,525.00
2023-04-06T11:21:12.027Z,529.00
2023-04-06T11:22:12.043Z,523.00
2023-04-06T11:23:11.984Z,522.00
2023-04-06T11:24:11.982Z,514.00
2023-04-06T11:25:11.971Z,519.00
2023-04-06T11:26:12.022Z,515.00
2023-04-06T11:27:11.959Z,508.00
2023-04-06T11:28:11.966Z,509.00
2023-04-06T11:29:11.936Z,508.00
2023-04-06T11:30:11.945Z,503.00
2023-04-06T11:31:12.102Z,505.00
2023-04-06T11:32:11.938Z,507.00
2023-04-06T11:33:11.965Z,505.00
2023-04-06T11:34:11.934Z,509.00
2023-04-06T11:35:11.943Z,508.00
2023-04-06T11:36:13.060Z,501.00
2023-04-06T11:37:11.951Z,503.00
2023-04-06T11:38:11.898Z,500.00
2023-04-06T11:39:11.910Z,509.00
2023-04-06T11:40:11.902Z,512.00
2023-04-06T11:41:11.907Z,503.00
2023-04-06T11:42:11.861Z,505.00
2023-04-06T11:43:11.879Z,502.00
2023-04-06T11:44:11.904Z,504.00
2023-04-06T11:45:11.840Z,504.00
2023-04-06T11:46:11.870Z,504.00
2023-04-06T11:47:11.912Z,508.00
2023-04-06T11:49:12.423Z,506.00
2023-04-06T11:50:11.897Z,502.00
2023-04-06T11:51:11.896Z,506.00
2023-04-06T11:52:11.905Z,510.00
2023-04-06T11:53:11.905Z,509.00
2023-04-06T11:54:11.903Z,512.00
2023-04-06T11:55:11.875Z,509.00
2023-04-06T11:56:11.913Z,511.00
2023-04-06T11:57:11.944Z,506.00
2023-04-06T11:58:11.923Z,507.00
2023-04-06T11:59:12.019Z,505.00
2023-04-06T12:00:12.037Z,506.00
2023-04-06T12:01:11.930Z,501.00
2023-04-06T12:02:11.916Z,502.00
2023-04-06T12:03:12.024Z,505.00
2023-04-06T12:04:11.981Z,511.00
2023-04-06T12:05:11.942Z,503.00
2023-04-06T12:06:11.917Z,509.00
2023-04-06T12:07:11.929Z,502.00
2023-04-06T12:08:11.896Z,513.00
2023-04-06T12:09:11.945Z,511.00
2023-04-06T12:10:12.081Z,505.00
2023-04-06T12:11:12.026Z,500.00
2023-04-06T12:12:11.943Z,505.00
2023-04-06T12:13:11.983Z,503.00
2023-04-06T12:14:11.996Z,503.00
2023-04-06T12:15:12.001Z,505.00
2023-04-06T12:16:11.941Z,510.00
2023-04-06T12:17:11.976Z,509.00
2023-04-06T12:18:12.025Z,511.00
2023-04-06T12:19:12.034Z,502.00
2023-04-06T12:20:24.711Z,506.00
2023-04-06T12:21:13.018Z,506.00
2023-04-06T12:22:11.949Z,503.00
2023-04-06T12:23:11.949Z,502.00
2023-04-06T12:24:11.957Z,501.00
2023-04-06T12:25:11.955Z,499.00
2023-04-06T12:26:13.271Z,504.00
2023-04-06T12:27:11.963Z,503.00
2023-04-06T12:28:11.889Z,502.00
2023-04-06T12:29:11.934Z,500.00
2023-04-06T12:30:11.992Z,504.00